Richland, Michigan
Current Conditions -  °F | °C
As of 12:22 AM on Sunday 21 Dec 2014 (Local Time) from KAZO Reporting Station
Haze Haze  
Wind Chill: 24°   Ceiling: 2300
Heat Index: 30°   Visibility: 4mi
Dew Point: 27°   Wind: 6mph
Humidity: 88%   Direction: 180°S
Pressure: 30.26"   Gusts: NA
Location:  42.38°N, 85.46°W
Report Text: KAZO 210522Z AUTO 18005KT 4SM BR FEW007 BKN023 OVC060 M01/M03 A3026 RMK AO2 T10111028
Loading
Personal Weather Stations






























Interactive Weather Map New forecast layout! Learn more

10-Day Weather Forecast

Advertisements
Track Severe Weather on mobile